May 22, 2022

Time Code Weather Temp. Visibility Clouds Wind METAR/SPECI
8:50 am
V
59 °F 6¼ mi+ - Var   Var 1 kt METAR EDTY 220650Z VRB01KT CAVOK 15/11 Q1017
8:20 am
V
55 °F 6¼ mi+ - Var   000° 0 kt METAR EDTY 220620Z 00000KT CAVOK 13/10 Q1017
7:50 am
V
55 °F 6¼ mi+ - Var   Var 1 kt METAR EDTY 220550Z AUTO VRB01KT 9999 // NCD 13/10 Q1017
7:20 am
V
52 °F 6¼ mi+ - Var   Var 1 kt METAR EDTY 220520Z AUTO VRB01KT 9999 // NCD 11/09 Q1018
6:50 am
V
48 °F 6¼ mi+ - 090°   090° 2 kt METAR EDTY 220450Z AUTO 09002KT 9999 // FEW140/// 09/08 Q1018
6:20 am
V
45 °F 6¼ mi+ - 090°   090° 3 kt METAR EDTY 220420Z AUTO 09003KT 9999 // FEW250/// 07/07 Q1018
5:50 am
V
45 °F 6¼ mi+ - 080°   080° 4 kt METAR EDTY 220350Z AUTO 08004KT 9999 // FEW240/// 07/06 Q1018
5:20 am
V
43 °F 5⅝ mi - 090°   090° 4 kt METAR EDTY 220320Z AUTO 09004KT 9000 // FEW250/// 06/06 Q1018
4:50 am
V
45 °F 6¼ mi+ - 080°   080° 3 kt METAR EDTY 220250Z AUTO 08003KT 9999 // NCD 07/07 Q1018
4:20 am
V
45 °F 6¼ mi+ - 070°   070° 2 kt METAR EDTY 220220Z AUTO 07002KT 9999 // NCD 07/07 Q1019
3:50 am
V
46 °F 6¼ mi+ - 100°   100° 3 kt METAR EDTY 220150Z AUTO 10003KT 9999 // NCD 08/07 Q1019
3:20 am
V
46 °F 6¼ mi+ - 090°   090° 3 kt METAR EDTY 220120Z AUTO 09003KT 9999 // NCD 08/08 Q1019
2:50 am
V
46 °F 6¼ mi+ - 090°   090° 3 kt METAR EDTY 220050Z AUTO 09003KT 9999 // NCD 08/08 Q1019
2:20 am
V
48 °F 6¼ mi+ - 070°   070° 1 kt METAR EDTY 220020Z AUTO 07001KT 9999 // NCD 09/08 Q1019
1:50 am
V
48 °F 6¼ mi+ - 090°   090° 3 kt METAR EDTY 212350Z AUTO 09003KT 9999 // NCD 09/08 Q1019
1:20 am
V
48 °F 6¼ mi+ - Var   000° 0 kt METAR EDTY 212320Z AUTO 00000KT 9999 // NCD 09/08 Q1020
12:50 am
V
50 °F 6¼ mi+ - Var   000° 0 kt METAR EDTY 212250Z AUTO 00000KT 9999 // NCD 10/08 Q1020
12:20 am
V
52 °F 6¼ mi+ - Var   000° 0 kt METAR EDTY 212220Z AUTO 00000KT 9999 // NCD 11/08 Q1020

May 21, 2022

Time Code Weather Temp. Visibility Clouds Wind METAR/SPECI
11:50 pm
V
52 °F 6¼ mi+ - Var   000° 0 kt METAR EDTY 212150Z AUTO 00000KT 9999 // NCD 11/09 Q1020
11:20 pm
V
52 °F 6¼ mi+ - Var   Var 2 kt METAR EDTY 212120Z AUTO VRB02KT 9999 // NCD 11/09 Q1020
10:50 pm
V
55 °F 6¼ mi+ - 100°   100° 4 kt METAR EDTY 212050Z AUTO 10004KT 9999 // NCD 13/08 Q1020
10:20 pm
V
57 °F 6¼ mi+ - 100°   100° 3 kt METAR EDTY 212020Z AUTO 10003KT 9999 // NCD 14/09 Q1020
9:50 pm
V
57 °F 6¼ mi+ - 030°   030° 4 kt METAR EDTY 211950Z AUTO 03004KT 9999 // NCD 14/09 Q1020
9:20 pm
V
59 °F 6¼ mi+ - 020°   020° 3 kt METAR EDTY 211920Z AUTO 02003KT 9999 // FEW160/// 15/09 Q1020
8:50 pm
V
61 °F 6¼ mi+ 17,000 ft 350°   350° 3 kt METAR EDTY 211850Z AUTO 35003KT 9999 // BKN170/// 16/10 Q1020
8:20 pm
V
63 °F 6¼ mi+ 22,000 ft 340°   340° 3 kt METAR EDTY 211820Z AUTO 34003KT 9999 // SCT180/// BKN220/// 17/10 Q1020
7:50 pm
V
64 °F 6¼ mi+ - 330°   330° 4 kt METAR EDTY 211750Z 33004KT CAVOK 18/10 Q1020
7:20 pm
V
64 °F 6¼ mi+ - 340°   340° 4 kt METAR EDTY 211720Z 34004KT CAVOK 18/09 Q1020
6:50 pm
V
64 °F 6¼ mi+ - 340°   340° 7 kt METAR EDTY 211650Z 34007KT CAVOK 18/09 Q1021
6:20 pm
V
64 °F 6¼ mi+ - 340°   340° 7 kt METAR EDTY 211620Z 34007KT 310V010 CAVOK 18/09 Q1021
5:50 pm
V
64 °F 6¼ mi+ - 310°   310° 8 kt METAR EDTY 211550Z 31008KT CAVOK 18/09 Q1021
5:20 pm
V
64 °F 6¼ mi+ - 300°   300° 9 kt METAR EDTY 211520Z 30009KT CAVOK 18/08 Q1021
4:50 pm
V
64 °F 6¼ mi+ - 290°   290° 12 kt METAR EDTY 211450Z 29012KT 250V320 9999 FEW047 18/08 Q1022
4:20 pm
V
66 °F 6¼ mi+ - 290°   290° 11 kt METAR EDTY 211420Z 29011KT 260V350 CAVOK 19/08 Q1022
3:50 pm
V
66 °F 6¼ mi+ - 310°   310° 11 kt METAR EDTY 211350Z 31011KT 9999 FEW047 19/10 Q1022
3:20 pm
V
66 °F 6¼ mi+ - 300°   300° 12 kt METAR EDTY 211320Z 30012KT CAVOK 19/09 Q1022
2:50 pm
V
64 °F 6¼ mi+ - 300°   300° 13 kt METAR EDTY 211250Z 30013KT 9999 FEW041 18/08 Q1022
2:20 pm
V
64 °F 6¼ mi+ - 300°   300° 11 kt METAR EDTY 211220Z 30011KT 270V340 9999 FEW040 18/10 Q1022
1:50 pm
V
64 °F 6¼ mi+ - 290°   290° 11 kt METAR EDTY 211150Z 29011KT 250V320 9999 FEW041 18/09 Q1023
1:20 pm
V
64 °F 6¼ mi+ - 290°   290° 10 kt METAR EDTY 211120Z 29010KT 230V320 9999 FEW036 18/10 Q1023
12:50 pm
V
63 °F 6¼ mi+ - 290°   290° 11 kt METAR EDTY 211050Z 29011KT 250V310 9999 FEW036 17/09 Q1023
12:20 pm
V
63 °F 6¼ mi+ - 300°   300° 12 kt METAR EDTY 211020Z 30012KT 9999 FEW034 17/09 Q1023
11:50 am
V
63 °F 6¼ mi+ - 290°   290° 10 kt METAR EDTY 210950Z 29010KT 250V330 9999 FEW032 17/09 Q1023
11:20 am
V
61 °F 6¼ mi+ - 290°   290° 11 kt METAR EDTY 210920Z 29011KT 210V330 9999 FEW033 16/10 Q1023
10:50 am
V
63 °F 6¼ mi+ - 280°   280° 10 kt METAR EDTY 210850Z 28010KT 250V310 9999 FEW032 17/10 Q1023
10:20 am
V
61 °F 6¼ mi+ - 260°   260° 9 kt METAR EDTY 210820Z 26009KT 210V300 9999 FEW029 16/09 Q1023
9:50 am
V
59 °F 6¼ mi+ - 280°   280° 11 kt METAR EDTY 210750Z 28011KT 9999 FEW020 15/09 Q1023
9:20 am
V
57 °F 6¼ mi+ - 270°   270° 11 kt METAR EDTY 210720Z 27011KT 9999 FEW020 14/09 Q1023
8:50 am
V
57 °F 6¼ mi+ - 270°   270° 10 kt METAR EDTY 210650Z 27010KT 9999 SCT018 14/09 Q1023
8:20 am
M
57 °F 6¼ mi+ 1,800 ft 270°   270° 12 kt METAR EDTY 210620Z 27012KT 9999 BKN018 14/10 Q1023
7:50 am
M
57 °F 6¼ mi+ 1,700 ft 280°   280° 10 kt METAR EDTY 210550Z 28010KT 9999 BKN017 14/10 Q1023
7:20 am
V
55 °F 6¼ mi+ - 270°   270° 8 kt METAR EDTY 210520Z 27008KT 9999 SCT017 13/10 Q1023
6:50 am
V
55 °F 6¼ mi+ - 270°   270° 9 kt METAR EDTY 210450Z AUTO 27009KT 9999 // FEW026/// 13/09 Q1023
6:20 am
V
54 °F 6¼ mi+ - 270°   270° 8 kt METAR EDTY 210420Z AUTO 27008KT 9999 // FEW024/// 12/09 Q1023
5:50 am
M
55 °F 6¼ mi+ 2,400 ft 270°   270° 8 kt METAR EDTY 210350Z AUTO 27008KT 230V300 9999 // FEW020/// BKN024/// 13/09 Q1023
5:20 am
M
55 °F 6¼ mi+ 2,500 ft 270°   270° 5 kt METAR EDTY 210320Z AUTO 27005KT 210V310 9999 // FEW020/// OVC025/// 13/10 Q1022
4:50 am
M
57 °F 6¼ mi+ 2,500 ft 280°   280° 4 kt METAR EDTY 210250Z AUTO 28004KT 240V300 9999 // OVC025/// 14/10 Q1022
4:20 am
M
57 °F 6¼ mi+ 1,700 ft 330°   330° 3 kt METAR EDTY 210220Z AUTO 33003KT 290V010 9999 // BKN017/// BKN025/// 14/11 Q1022
3:50 am
M
57 °F 6¼ mi+ 2,200 ft 310°   310° 7 kt METAR EDTY 210150Z AUTO 31007KT 280V340 9999 // FEW012/// BKN022/// 14/11 Q1021
3:20 am
M
61 °F 6¼ mi+ 1,400 ft 280°   280° 10 kt METAR EDTY 210120Z AUTO 28010KT 250V310 9999 // BKN014/// BKN017/// BKN020/// 16/14 Q1021
2:50 am
M
63 °F 6¼ mi+ 1,700 ft 270°   270° 11 kt METAR EDTY 210050Z AUTO 27011KT 230V300 9999 // SCT013/// BKN017/// BKN020/// 17/14 Q1021
2:20 am
M
63 °F 6¼ mi+ 1,600 ft 260°   260° 14 kt METAR EDTY 210020Z AUTO 26014KT 9999 // BKN016/// 17/14 Q1020
1:50 am
M
64 °F 6¼ mi+ 1,800 ft 260°   260° 14 kt METAR EDTY 202350Z AUTO 26014KT 9999 // FEW012/// BKN018/// 18/15 Q1020
1:20 am
V
64 °F 6¼ mi+ 5,600 ft 270°   270° 11 kt METAR EDTY 202320Z AUTO 27011KT 9999 // FEW011/// SCT028/// BKN056/// 18/16 Q1020
12:50 am
M
64 °F 6¼ mi+ 2,400 ft 270°   270° 11 kt METAR EDTY 202250Z AUTO 27011KT 9999 // FEW010/// SCT012/// BKN024/// 18/16 Q1020
12:20 am
V
64 °F 6¼ mi+ 6,600 ft 270°   270° 10 kt METAR EDTY 202220Z AUTO 27010KT 9999 // FEW019/// BKN066/// 18/17 Q1019

May 20, 2022

Time Code Weather Temp. Visibility Clouds Wind METAR/SPECI
11:50 pm
V
64 °F 6¼ mi+ 8,200 ft 270°   270° 10 kt METAR EDTY 202150Z AUTO 27010KT 9999 // SCT023/// BKN082/// OVC130/// 18/16 Q1019
11:20 pm
V
66 °F 6¼ mi+ 5,200 ft 270°   270° 11 kt METAR EDTY 202120Z AUTO 27011KT 9999 // FEW026/// BKN052/// BKN180/// 19/16 Q1019
10:50 pm
V
66 °F 6¼ mi+ 10,000 ft 270°   270° 11 22 kt METAR EDTY 202050Z AUTO 27011G22KT 9999 // FEW053/// BKN100/// BKN160/// 19/15 Q1018
10:20 pm
V
68 °F 6¼ mi+ 7,600 ft 270°   270° 12 kt METAR EDTY 202020Z AUTO 27012KT 9999 // FEW061/// BKN076/// OVC110/// 20/13 Q1018
9:50 pm
V
73 °F 6¼ mi+ 7,000 ft 260°   260° 8 19 kt METAR EDTY 201950Z AUTO 26008G19KT 240V300 9999 // FEW049/// BKN070/// OVC081/// 23/15 Q1018
9:20 pm
V
73 °F 6¼ mi+ 11,000 ft 250°   250° 4 kt METAR EDTY 201920Z AUTO 25004KT 9999 // OVC110/// 23/15 Q1016
8:50 pm
V
73 °F 6¼ mi+ 11,000 ft 280°   280° 3 kt METAR EDTY 201850Z AUTO 28003KT 240V320 9999 // BKN110/// 23/15 Q1016
8:20 pm
V
73 °F 6¼ mi+ 9,000 ft 230°   230° 4 kt METAR EDTY 201820Z AUTO 23004KT 190V280 9999 // BKN090/// BKN120/// 23/16 Q1016
7:50 pm
V
75 °F 6¼ mi+ - 230°   230° 4 kt METAR EDTY 201750Z 23004KT 200V270 CAVOK 24/15 Q1015
7:20 pm
V
75 °F 6¼ mi+ - Var   Var 3 kt METAR EDTY 201720Z VRB03KT CAVOK 24/15 Q1015
6:50 pm
V
77 °F 6¼ mi+ - 220°   220° 5 kt METAR EDTY 201650Z 22005KT 180V260 CAVOK 25/15 Q1016
6:20 pm
V
73 °F 6¼ mi+ 9,600 ft Var   Var 2 kt METAR EDTY 201620Z VRB02KT 9999 VCTS BKN096CB 23/16 Q1016
5:50 pm
V
73 °F 6¼ mi+ - 330°   330° 14 25 kt METAR EDTY 201550Z 33014G25KT 300V360 9999 VCTS FEW028 SCT032CB 23/16 Q1016
5:20 pm
V
82 °F 6¼ mi+ - 260°   260° 11 kt METAR EDTY 201520Z 26011KT 230V290 CAVOK 28/13 Q1016
4:50 pm
V
84 °F 6¼ mi+ - 240°   240° 5 kt METAR EDTY 201450Z 24005KT 180V270 CAVOK 29/14 Q1016
4:20 pm
V
86 °F 6¼ mi+ - 210°   210° 7 kt METAR EDTY 201420Z 21007KT 140V240 CAVOK 30/13 Q1016
3:50 pm
V
86 °F 6¼ mi+ - 220°   220° 8 kt METAR EDTY 201350Z 22008KT 160V260 CAVOK 30/13 Q1016
3:20 pm
V
86 °F 6¼ mi+ - Var   Var 6 kt METAR EDTY 201320Z VRB06KT CAVOK 30/13 Q1017
2:50 pm
V
84 °F 6¼ mi+ - 200°   200° 5 kt METAR EDTY 201250Z 20005KT 130V250 CAVOK 29/14 Q1018
2:20 pm
V
84 °F 6¼ mi+ - 200°   200° 6 kt METAR EDTY 201220Z 20006KT 140V260 CAVOK 29/15 Q1018
1:50 pm
V
82 °F 6¼ mi+ - 230°   230° 8 kt METAR EDTY 201150Z 23008KT 160V270 CAVOK 28/15 Q1019
1:20 pm
V
82 °F 6¼ mi+ - 240°   240° 8 kt METAR EDTY 201120Z 24008KT 200V280 CAVOK 28/16 Q1020
12:50 pm
V
81 °F 6¼ mi+ - 220°   220° 8 kt METAR EDTY 201050Z 22008KT 180V270 CAVOK 27/14 Q1020
12:20 pm
V
81 °F 6¼ mi+ - 250°   250° 8 kt METAR EDTY 201020Z 25008KT 210V280 CAVOK 27/14 Q1020
11:50 am
V
81 °F 6¼ mi+ - 240°   240° 6 kt METAR EDTY 200950Z 24006KT 190V300 CAVOK 27/17 Q1021
11:20 am
V
77 °F 6¼ mi+ - 230°   230° 6 kt METAR EDTY 200920Z 23006KT 190V260 CAVOK 25/16 Q1021
10:50 am
V
75 °F 6¼ mi+ - 250°   250° 5 kt METAR EDTY 200850Z 25005KT 200V280 CAVOK 24/17 Q1022
10:20 am
V
73 °F 6¼ mi+ - 220°   220° 6 kt METAR EDTY 200820Z 22006KT 180V250 CAVOK 23/16 Q1022
9:50 am
V
72 °F 6¼ mi+ - Var   Var 4 kt METAR EDTY 200750Z VRB04KT CAVOK 22/16 Q1022
9:20 am
V
68 °F 6¼ mi+ - 230°   230° 3 kt METAR EDTY 200720Z 23003KT 190V280 CAVOK 20/17 Q1022
8:50 am
V
66 °F 6¼ mi+ - Var   Var 1 kt METAR EDTY 200650Z VRB01KT CAVOK 19/16 Q1022
8:20 am
V
64 °F 6¼ mi+ - Var   Var 2 kt METAR EDTY 200620Z VRB02KT CAVOK 18/16 Q1022
7:50 am
V
63 °F 6¼ mi+ - Var   Var 1 kt METAR EDTY 200550Z VRB01KT CAVOK 17/15 Q1022
7:20 am
V
59 °F 6¼ mi+ - 090°   090° 4 kt METAR EDTY 200520Z 09004KT CAVOK 15/15 Q1022
6:50 am
V
57 °F 6¼ mi+ - 090°   090° 3 kt METAR EDTY 200450Z 09003KT CAVOK 14/14 Q1022
Older data

Download our app

Easy access to all aviation weather on your mobile phone and tablet.
With many features not available on the website, like offline support and a personal airport list.

We and third parties follow your internet behavior on our website with cookies. If you continue, we assume you agree with our cookie policy. Learn more